Palessa — V2IA7 — position and weather

sailwx.info

Track history (hours):
 
Tides and Currents Weather Stations Pressure Air Temp Water Temp Dewpoint Dewpoint Depression Visibility Wind Speed Wind Dir Waves Ship Positions

Palessa

Last reported at 2015-Aug-26 22:19 UTC. Time now 2015-Sep-02 12:56 UTC.
Position N 29°27' W 094°50'.

Length 118 m; draft 5.4 m.

Type: Cargo ship. MMSI: 304255000.

Date/timePositionNaut miles runAvg speedWind from/ knotsBaromVisibWave heightAir tempDewpointWater temp
2015-Aug-26 22:19N 29°27' W 094°50'1013.3
2015-Aug-26 21:33N 29°35' W 094°56'1110.6
2015-Aug-26 20:33N 29°44' W 095°03'7 6.7
2015-Aug-26 19:32N 29°45' W 095°11'4 1.9
2015-Aug-26 17:09N 29°44' W 095°16'0 0.0
2015-Aug-26 16:06N 29°44' W 095°16'0 0.0
2015-Aug-26 15:15N 29°44' W 095°16'0 0.0
2015-Aug-26 13:30N 29°44' W 095°16'0 0.0
2015-Aug-26 12:27N 29°44' W 095°16'0 0.0
2015-Aug-26 11:33N 29°44' W 095°16'0 0.0
2015-Aug-26 10:33N 29°44' W 095°16'0 0.0
2015-Aug-26 09:33N 29°44' W 095°16'0 0.0
2015-Aug-26 08:33N 29°44' W 095°16'0 0.0
2015-Aug-26 07:33N 29°44' W 095°16'0 0.0
2015-Aug-26 06:33N 29°44' W 095°16'0 0.0
2015-Aug-26 05:33N 29°44' W 095°16'0 0.0
2015-Aug-26 04:27N 29°44' W 095°16'0 0.0
2015-Aug-26 03:33N 29°44' W 095°16'0 0.0
2015-Aug-26 02:33N 29°44' W 095°16'0 0.0
2015-Aug-26 01:33N 29°44' W 095°16'0 0.0
2015-Aug-26 00:33N 29°44' W 095°16'0 0.0
2015-Aug-25 22:33N 29°44' W 095°16'0 0.0
2015-Aug-25 21:21N 29°44' W 095°16'0 0.0
2015-Aug-25 19:21N 29°44' W 095°16'0 0.0
2015-Aug-25 16:18N 29°44' W 095°16'0 0.0
2015-Aug-25 15:33N 29°44' W 095°16'0 0.0
2015-Aug-25 14:12N 29°44' W 095°16'0 0.0
2015-Aug-25 13:27N 29°44' W 095°16'0 0.0
2015-Aug-25 12:33N 29°44' W 095°16'0 0.0
2015-Aug-25 11:27N 29°44' W 095°16'0 0.0
2015-Aug-25 10:21N 29°44' W 095°16'0 0.0
2015-Aug-25 09:21N 29°44' W 095°16'0 0.0
2015-Aug-25 08:33N 29°44' W 095°16'0 0.0
2015-Aug-25 07:27N 29°44' W 095°16'0 0.0
2015-Aug-25 06:33N 29°44' W 095°16'0 0.0
2015-Aug-25 05:21N 29°44' W 095°16'0 0.0
2015-Aug-25 04:27N 29°44' W 095°16'0 0.0
2015-Aug-25 03:30N 29°44' W 095°16'0 0.0
2015-Aug-25 00:09N 29°44' W 095°16'0 0.0
2015-Aug-24 23:33N 29°44' W 095°16'3 2.9
2015-Aug-24 22:33N 29°44' W 095°13'5 0.8
2015-Aug-24 16:05N 29°45' W 095°06'0 0.0
2015-Aug-24 15:17N 29°45' W 095°06'0 0.0
2015-Aug-24 07:33N 29°45' W 095°06'4 3.7
2015-Aug-24 06:33N 29°44' W 095°02'1312.6
2015-Aug-24 05:33N 29°33' W 094°55'  
2015-Aug-20 06:33N 29°33' W 094°55'1211.9
2015-Aug-20 05:33N 29°43' W 095°01'6 5.8
2015-Aug-20 04:33N 29°44' W 095°08'  
Track history (hours):
 
Tides and Currents Weather Stations Pressure Air Temp Water Temp Dewpoint Dewpoint Depression Visibility Wind Speed Wind Dir Waves Ship Positions

Palessa

Last reported at 2015-Aug-26 22:19 UTC. Time now 2015-Sep-02 12:56 UTC.
Position N 29°27' W 094°50'.

Length 118 m; draft 5.4 m.

Type: Cargo ship. MMSI: 304255000.

Date/timePositionNaut miles runAvg speedWind from/ knotsBaromVisibWave heightAir tempDewpointWater temp
2015-Aug-26 22:19N 29°27' W 094°50'1013.3
2015-Aug-26 21:33N 29°35' W 094°56'1110.6
2015-Aug-26 20:33N 29°44' W 095°03'7 6.7
2015-Aug-26 19:32N 29°45' W 095°11'4 1.9
2015-Aug-26 17:09N 29°44' W 095°16'0 0.0
2015-Aug-26 16:06N 29°44' W 095°16'0 0.0
2015-Aug-26 15:15N 29°44' W 095°16'0 0.0
2015-Aug-26 13:30N 29°44' W 095°16'0 0.0
2015-Aug-26 12:27N 29°44' W 095°16'0 0.0
2015-Aug-26 11:33N 29°44' W 095°16'0 0.0
2015-Aug-26 10:33N 29°44' W 095°16'0 0.0
2015-Aug-26 09:33N 29°44' W 095°16'0 0.0
2015-Aug-26 08:33N 29°44' W 095°16'0 0.0
2015-Aug-26 07:33N 29°44' W 095°16'0 0.0
2015-Aug-26 06:33N 29°44' W 095°16'0 0.0
2015-Aug-26 05:33N 29°44' W 095°16'0 0.0
2015-Aug-26 04:27N 29°44' W 095°16'0 0.0
2015-Aug-26 03:33N 29°44' W 095°16'0 0.0
2015-Aug-26 02:33N 29°44' W 095°16'0 0.0
2015-Aug-26 01:33N 29°44' W 095°16'0 0.0
2015-Aug-26 00:33N 29°44' W 095°16'0 0.0
2015-Aug-25 22:33N 29°44' W 095°16'0 0.0
2015-Aug-25 21:21N 29°44' W 095°16'0 0.0
2015-Aug-25 19:21N 29°44' W 095°16'0 0.0
2015-Aug-25 16:18N 29°44' W 095°16'0 0.0
2015-Aug-25 15:33N 29°44' W 095°16'0 0.0
2015-Aug-25 14:12N 29°44' W 095°16'0 0.0
2015-Aug-25 13:27N 29°44' W 095°16'0 0.0
2015-Aug-25 12:33N 29°44' W 095°16'0 0.0
2015-Aug-25 11:27N 29°44' W 095°16'0 0.0
2015-Aug-25 10:21N 29°44' W 095°16'0 0.0
2015-Aug-25 09:21N 29°44' W 095°16'0 0.0
2015-Aug-25 08:33N 29°44' W 095°16'0 0.0
2015-Aug-25 07:27N 29°44' W 095°16'0 0.0
2015-Aug-25 06:33N 29°44' W 095°16'0 0.0
2015-Aug-25 05:21N 29°44' W 095°16'0 0.0
2015-Aug-25 04:27N 29°44' W 095°16'0 0.0
2015-Aug-25 03:30N 29°44' W 095°16'0 0.0
2015-Aug-25 00:09N 29°44' W 095°16'0 0.0
2015-Aug-24 23:33N 29°44' W 095°16'3 2.9
2015-Aug-24 22:33N 29°44' W 095°13'5 0.8
2015-Aug-24 16:05N 29°45' W 095°06'0 0.0
2015-Aug-24 15:17N 29°45' W 095°06'0 0.0
2015-Aug-24 07:33N 29°45' W 095°06'4 3.7
2015-Aug-24 06:33N 29°44' W 095°02'1312.6
2015-Aug-24 05:33N 29°33' W 094°55'  
2015-Aug-20 06:33N 29°33' W 094°55'1211.9
2015-Aug-20 05:33N 29°43' W 095°01'6 5.8
2015-Aug-20 04:33N 29°44' W 095°08'  

Dump ship's entire track history